Time;durP1;ratioP1;P1;durP2;ratioP2;P2;SDS_P1;SDS_P2;PMS_P1;PMS_P2;Temp;Humidity;BMP_temperature;BMP_pressure;BME280_temperature;BME280_humidity;BME280_pressure;Samples;Min_cycle;Max_cycle;Signal;HPM_P1;HPM_P2
2023/03/17 00:00:13;;;;;;;4.40;3.20;;;2.70;85.30;;;;;;5028766;28;20287;-74
2023/03/17 00:02:42;;;;;;;3.30;3.10;;;2.70;85.30;;;;;;5026438;28;20231;-74
2023/03/17 00:05:24;;;;;;;4.77;3.30;;;2.60;85.50;;;;;;5024625;28;20233;-74
2023/03/17 00:07:52;;;;;;;3.20;2.95;;;2.70;85.30;;;;;;5027864;28;20203;-73
2023/03/17 00:10:24;;;;;;;3.55;2.65;;;2.60;84.50;;;;;;5033181;28;20679;-74
2023/03/17 00:12:54;;;;;;;3.05;2.60;;;2.60;84.90;;;;;;5031691;28;20205;-74
2023/03/17 00:15:22;;;;;;;3.15;2.83;;;2.70;84.90;;;;;;5028117;28;20189;-73
2023/03/17 00:17:48;;;;;;;3.03;2.75;;;2.70;84.70;;;;;;5020070;28;20177;-74
2023/03/17 00:20:29;;;;;;;3.30;2.85;;;2.80;84.80;;;;;;5031875;28;20691;-74
2023/03/17 00:22:58;;;;;;;3.40;3.10;;;2.70;84.70;;;;;;5020667;28;20184;-73
2023/03/17 00:25:27;;;;;;;3.85;3.00;;;2.70;83.90;;;;;;5027475;28;20180;-74
2023/03/17 00:27:54;;;;;;;2.95;2.70;;;2.60;84.60;;;;;;5026641;28;20267;-73
2023/03/17 00:30:21;;;;;;;3.30;3.00;;;2.60;85.10;;;;;;5026961;28;20296;-74
2023/03/17 00:32:50;;;;;;;2.67;2.47;;;2.60;85.20;;;;;;5022966;28;20204;-74
2023/03/17 00:35:20;;;;;;;3.28;2.97;;;2.50;84.80;;;;;;5031409;28;20226;-74
2023/03/17 00:37:46;;;;;;;3.17;2.50;;;2.60;85.00;;;;;;5030070;28;20172;-74
2023/03/17 00:40:18;;;;;;;2.83;2.63;;;2.60;84.60;;;;;;5022999;28;20679;-74
2023/03/17 00:42:44;;;;;;;2.67;2.47;;;2.60;84.70;;;;;;5026773;28;20269;-74
2023/03/17 00:45:11;;;;;;;4.10;2.47;;;2.60;84.80;;;;;;5029986;28;20179;-74
2023/03/17 00:47:37;;;;;;;2.57;2.40;;;2.50;83.90;;;;;;5025695;28;20177;-74
2023/03/17 00:50:03;;;;;;;2.88;2.60;;;2.50;84.10;;;;;;5024363;28;20270;-74
2023/03/17 00:52:30;;;;;;;2.88;2.58;;;2.50;84.00;;;;;;5022183;28;20191;-74
2023/03/17 00:54:55;;;;;;;2.70;2.50;;;2.50;84.80;;;;;;5028009;28;20219;-74
2023/03/17 00:57:21;;;;;;;2.88;2.65;;;2.40;84.40;;;;;;5030028;28;20205;-74
2023/03/17 00:59:47;;;;;;;2.67;2.47;;;2.50;84.00;;;;;;5024586;28;20180;-74
2023/03/17 01:02:13;;;;;;;3.08;2.83;;;2.50;84.10;;;;;;5030044;28;20235;-74
2023/03/17 01:04:40;;;;;;;2.60;2.40;;;2.50;84.60;;;;;;5027507;28;20180;-74
2023/03/17 01:07:09;;;;;;;2.28;2.13;;;2.40;84.70;;;;;;5030084;28;20279;-74
2023/03/17 01:09:35;;;;;;;5.65;2.88;;;2.40;85.20;;;;;;5028285;28;20536;-74
2023/03/17 01:12:01;;;;;;;3.05;2.78;;;2.40;85.60;;;;;;5035759;28;20191;-74
2023/03/17 01:14:26;;;;;;;3.03;2.40;;;2.30;86.00;;;;;;5023593;28;20208;-74
2023/03/17 01:16:53;;;;;;;2.80;2.47;;;2.30;86.20;;;;;;5026352;28;20185;-74
2023/03/17 01:19:19;;;;;;;5.75;2.90;;;2.40;86.10;;;;;;5023319;28;20214;-74
2023/03/17 01:21:46;;;;;;;2.90;2.63;;;2.40;86.20;;;;;;5023499;28;20680;-74
2023/03/17 01:24:13;;;;;;;3.08;2.58;;;2.40;86.50;;;;;;5028100;28;20184;-74
2023/03/17 01:26:39;;;;;;;3.40;3.15;;;2.30;86.40;;;;;;5022552;28;20652;-74
2023/03/17 01:29:06;;;;;;;3.80;2.53;;;2.30;87.10;;;;;;5023515;28;20184;-74
2023/03/17 01:31:32;;;;;;;4.50;3.17;;;2.20;87.50;;;;;;5026852;28;20559;-75
2023/03/17 01:33:58;;;;;;;3.40;3.00;;;2.20;87.40;;;;;;5019370;28;20260;-74
2023/03/17 01:36:23;;;;;;;3.03;2.73;;;2.10;88.30;;;;;;5029703;28;20184;-73
2023/03/17 01:38:49;;;;;;;2.67;2.47;;;2.10;88.40;;;;;;5023957;28;20233;-74
2023/03/17 01:41:19;;;;;;;2.73;2.40;;;2.10;88.40;;;;;;5034156;28;20191;-74
2023/03/17 01:43:45;;;;;;;3.27;2.73;;;2.00;89.10;;;;;;5018579;28;20625;-73
2023/03/17 01:46:16;;;;;;;3.70;3.40;;;2.10;89.30;;;;;;5025884;28;20211;-74
2023/03/17 01:48:45;;;;;;;3.23;2.93;;;2.10;89.70;;;;;;5025398;28;20271;-74
2023/03/17 01:51:17;;;;;;;3.20;2.93;;;2.00;89.50;;;;;;5034344;28;20199;-74
2023/03/17 01:53:47;;;;;;;5.17;3.30;;;2.10;89.70;;;;;;5026794;28;20291;-74
2023/03/17 01:56:14;;;;;;;4.13;3.00;;;2.10;89.60;;;;;;5026320;28;20599;-74
2023/03/17 01:58:40;;;;;;;3.10;2.83;;;2.00;89.90;;;;;;5029925;28;20180;-75
2023/03/17 02:01:06;;;;;;;3.93;2.70;;;2.00;89.80;;;;;;5023212;28;20236;-74
2023/03/17 02:03:33;;;;;;;2.47;2.33;;;2.10;89.70;;;;;;5030089;28;20195;-74
2023/03/17 02:05:59;;;;;;;2.97;2.70;;;2.10;89.20;;;;;;5027622;28;20238;-73
2023/03/17 02:08:25;;;;;;;2.80;2.60;;;2.10;89.00;;;;;;5033548;28;20541;-73
2023/03/17 02:10:51;;;;;;;3.27;3.00;;;2.10;89.00;;;;;;5023465;28;23212;-74
2023/03/17 02:13:17;;;;;;;3.07;2.87;;;2.10;88.60;;;;;;5038233;28;20718;-72
2023/03/17 02:15:47;;;;;;;3.97;2.93;;;2.10;88.40;;;;;;5030683;28;20237;-73
2023/03/17 02:18:14;;;;;;;3.47;3.10;;;2.10;88.30;;;;;;5019008;28;20679;-73
2023/03/17 02:20:40;;;;;;;2.73;2.53;;;2.10;88.30;;;;;;5030842;28;20196;-73
2023/03/17 02:23:06;;;;;;;3.63;3.00;;;2.10;88.50;;;;;;5033198;28;20311;-73
2023/03/17 02:25:34;;;;;;;3.33;2.80;;;2.00;88.50;;;;;;5028761;28;20185;-73
2023/03/17 02:28:07;;;;;;;2.83;2.63;;;1.90;88.60;;;;;;5020412;28;20190;-74
2023/03/17 02:30:33;;;;;;;2.70;2.50;;;1.90;88.60;;;;;;5031356;28;20679;-74
2023/03/17 02:32:59;;;;;;;3.33;3.03;;;1.90;88.80;;;;;;5026817;28;20293;-74
2023/03/17 02:35:25;;;;;;;2.90;2.70;;;1.80;88.60;;;;;;5028963;28;20623;-74
2023/03/17 02:37:50;;;;;;;2.87;2.60;;;1.80;88.90;;;;;;5021451;28;20580;-74
2023/03/17 02:40:17;;;;;;;2.60;2.40;;;1.80;88.90;;;;;;5037254;28;20196;-74
2023/03/17 02:42:43;;;;;;;3.00;2.60;;;1.70;89.10;;;;;;5023913;28;20538;-74
2023/03/17 02:45:11;;;;;;;3.07;2.43;;;1.60;89.10;;;;;;5025924;28;20181;-74
2023/03/17 02:47:37;;;;;;;2.60;2.40;;;1.60;89.20;;;;;;5025832;28;20181;-74
2023/03/17 02:50:04;;;;;;;2.73;2.20;;;1.60;89.40;;;;;;5030609;28;20701;-74
2023/03/17 02:52:30;;;;;;;2.60;2.40;;;1.60;90.10;;;;;;5028733;28;20749;-74
2023/03/17 02:54:56;;;;;;;5.07;2.63;;;1.50;90.00;;;;;;5029726;28;20212;-74
2023/03/17 02:57:22;;;;;;;3.30;2.40;;;1.50;90.10;;;;;;5029483;28;20180;-73
2023/03/17 02:59:49;;;;;;;2.67;2.47;;;1.40;90.30;;;;;;5026059;28;20185;-74
2023/03/17 03:02:15;;;;;;;4.07;2.90;;;1.40;90.60;;;;;;5027177;28;20357;-74
2023/03/17 03:04:41;;;;;;;3.50;2.43;;;1.40;91.00;;;;;;5029831;28;20178;-73
2023/03/17 03:07:08;;;;;;;2.50;2.30;;;1.40;90.60;;;;;;5023168;28;20188;-74
2023/03/17 03:09:34;;;;;;;3.83;2.50;;;1.40;90.70;;;;;;5032373;28;20208;-74
2023/03/17 03:12:00;;;;;;;2.80;2.60;;;1.30;90.80;;;;;;5034169;28;20664;-74
2023/03/17 03:14:26;;;;;;;2.87;2.50;;;1.20;91.10;;;;;;5036664;28;20199;-74
2023/03/17 03:16:51;;;;;;;3.17;2.30;;;1.20;91.30;;;;;;5027505;28;20211;-74
2023/03/17 03:19:17;;;;;;;2.93;2.70;;;1.20;91.10;;;;;;5032173;28;20235;-74
2023/03/17 03:21:43;;;;;;;2.50;2.30;;;1.20;91.20;;;;;;5032901;28;20303;-74
2023/03/17 03:24:09;;;;;;;3.33;2.30;;;1.30;91.20;;;;;;5032793;28;20188;-75
2023/03/17 03:26:35;;;;;;;2.63;2.43;;;1.30;91.30;;;;;;5038014;28;20533;-74
2023/03/17 03:29:02;;;;;;;2.50;2.40;;;1.30;91.30;;;;;;5029155;28;20190;-74
2023/03/17 03:31:27;;;;;;;3.43;2.27;;;1.20;91.30;;;;;;5033906;28;20204;-73
2023/03/17 03:33:53;;;;;;;3.40;2.33;;;1.20;91.30;;;;;;5024228;28;20208;-74
2023/03/17 03:36:19;;;;;;;2.53;2.43;;;1.30;91.30;;;;;;5030741;28;20188;-74
2023/03/17 03:38:44;;;;;;;2.27;2.10;;;1.30;91.50;;;;;;5023267;28;20258;-75
2023/03/17 03:41:10;;;;;;;2.70;2.50;;;1.30;91.60;;;;;;5026250;28;20197;-74
2023/03/17 03:43:36;;;;;;;2.10;2.00;;;1.40;91.70;;;;;;5023976;28;20602;-74
2023/03/17 03:46:03;;;;;;;2.30;2.13;;;1.40;91.60;;;;;;5026868;28;20184;-74
2023/03/17 03:48:29;;;;;;;2.20;2.10;;;1.40;91.90;;;;;;5036629;28;20669;-74
2023/03/17 03:51:00;;;;;;;2.33;2.23;;;1.40;91.90;;;;;;5022800;28;20196;-74
2023/03/17 03:53:27;;;;;;;4.03;2.23;;;1.50;91.70;;;;;;5035047;28;20588;-74
2023/03/17 03:55:53;;;;;;;2.63;2.53;;;1.50;91.80;;;;;;5023883;28;20272;-74
2023/03/17 03:58:19;;;;;;;2.30;2.20;;;1.40;91.60;;;;;;5025025;28;20173;-74
2023/03/17 04:00:45;;;;;;;2.43;2.33;;;1.40;91.80;;;;;;5027520;28;20286;-74
2023/03/17 04:03:11;;;;;;;3.87;2.70;;;1.40;91.90;;;;;;5026019;28;20240;-74
2023/03/17 04:05:37;;;;;;;3.50;3.20;;;1.30;91.70;;;;;;5027507;28;20239;-74
2023/03/17 04:08:03;;;;;;;2.70;2.50;;;1.30;91.60;;;;;;5026135;28;20189;-74
2023/03/17 04:10:28;;;;;;;3.00;2.50;;;1.20;91.80;;;;;;5027484;28;20200;-74
2023/03/17 04:12:55;;;;;;;2.90;2.33;;;1.30;92.00;;;;;;5026196;28;20180;-74
2023/03/17 04:15:20;;;;;;;3.17;2.50;;;1.30;92.10;;;;;;5021532;28;20271;-73
2023/03/17 04:17:46;;;;;;;2.43;2.23;;;1.30;91.80;;;;;;5028018;28;20184;-74
2023/03/17 04:20:13;;;;;;;2.90;2.50;;;1.30;92.00;;;;;;5025216;28;20270;-74
2023/03/17 04:22:40;;;;;;;2.30;2.20;;;1.40;91.90;;;;;;5022771;28;20216;-73
2023/03/17 04:25:08;;;;;;;2.30;2.20;;;1.30;91.80;;;;;;5021884;28;20194;-73
2023/03/17 04:27:34;;;;;;;3.97;2.27;;;1.30;91.70;;;;;;5029291;28;20180;-73
2023/03/17 04:30:00;;;;;;;2.43;2.23;;;1.30;91.90;;;;;;5024491;28;20258;-74
2023/03/17 04:32:26;;;;;;;4.17;2.20;;;1.30;92.00;;;;;;5026003;28;20191;-74
2023/03/17 04:34:52;;;;;;;3.17;2.50;;;1.30;92.20;;;;;;5023220;28;20204;-74
2023/03/17 04:37:17;;;;;;;2.43;2.27;;;1.30;92.20;;;;;;5015779;28;20188;-73
2023/03/17 04:39:43;;;;;;;2.37;2.17;;;1.30;92.20;;;;;;5021171;28;20202;-74
2023/03/17 04:42:09;;;;;;;3.10;2.40;;;1.30;92.30;;;;;;5021661;28;20664;-74
2023/03/17 04:44:35;;;;;;;2.40;2.30;;;1.30;92.30;;;;;;5029830;28;20265;-74
2023/03/17 04:47:01;;;;;;;2.57;2.33;;;1.30;92.30;;;;;;5023267;28;20177;-74
2023/03/17 04:49:27;;;;;;;2.97;2.43;;;1.40;92.40;;;;;;5023995;28;20188;-74
2023/03/17 04:51:53;;;;;;;3.13;2.60;;;1.50;92.40;;;;;;5026875;28;20666;-74
2023/03/17 04:54:18;;;;;;;3.00;2.43;;;1.50;92.30;;;;;;5017997;28;20604;-74
2023/03/17 04:56:44;;;;;;;3.67;2.33;;;1.60;92.40;;;;;;5027433;28;20181;-73
2023/03/17 04:59:10;;;;;;;3.33;2.63;;;1.60;92.30;;;;;;5023526;28;20185;-74
2023/03/17 05:01:36;;;;;;;2.80;2.50;;;1.70;92.10;;;;;;5032051;28;20696;-74
2023/03/17 05:04:02;;;;;;;3.90;2.57;;;1.80;92.00;;;;;;5022666;28;20275;-74
2023/03/17 05:06:28;;;;;;;3.03;2.70;;;1.80;92.00;;;;;;5026776;28;20181;-74
2023/03/17 05:08:53;;;;;;;3.87;2.50;;;1.80;92.20;;;;;;5022591;28;20245;-74
2023/03/17 05:11:19;;;;;;;2.80;2.37;;;1.90;92.30;;;;;;5021541;28;20608;-74
2023/03/17 05:13:44;;;;;;;2.73;2.53;;;1.90;92.20;;;;;;5023288;28;20200;-74
2023/03/17 05:16:10;;;;;;;3.63;2.50;;;1.90;92.30;;;;;;5020070;28;20237;-74
2023/03/17 05:18:37;;;;;;;3.43;2.17;;;1.90;92.20;;;;;;5026329;28;20241;-74
2023/03/17 05:21:06;;;;;;;3.43;2.50;;;1.90;92.10;;;;;;5023148;28;20694;-74
2023/03/17 05:23:32;;;;;;;2.70;2.37;;;1.90;92.10;;;;;;5021190;28;20335;-73
2023/03/17 05:25:58;;;;;;;2.80;2.60;;;1.90;92.10;;;;;;5027723;28;20600;-74
2023/03/17 05:28:25;;;;;;;3.73;2.33;;;2.00;91.90;;;;;;5032318;28;20191;-74
2023/03/17 05:30:51;;;;;;;3.90;2.33;;;2.10;91.70;;;;;;5024547;28;20221;-74
2023/03/17 05:33:17;;;;;;;2.67;2.47;;;2.20;91.70;;;;;;5023339;28;20220;-74
2023/03/17 05:35:43;;;;;;;2.57;2.37;;;2.10;91.70;;;;;;5021258;28;20196;-74
2023/03/17 05:38:10;;;;;;;2.70;2.50;;;2.20;91.80;;;;;;5020440;28;20191;-74
2023/03/17 05:40:36;;;;;;;4.53;2.30;;;2.20;91.80;;;;;;5018349;28;20616;-74
2023/03/17 05:43:02;;;;;;;2.70;2.50;;;2.20;91.60;;;;;;5025070;28;20215;-74
2023/03/17 05:45:29;;;;;;;5.43;2.80;;;2.20;91.80;;;;;;5022630;28;20192;-73
2023/03/17 05:47:55;;;;;;;2.33;2.17;;;2.30;91.80;;;;;;5019966;28;20663;-74
2023/03/17 05:50:21;;;;;;;2.25;2.15;;;2.30;91.80;;;;;;5021696;28;20619;-74
2023/03/17 05:52:47;;;;;;;5.03;2.60;;;2.30;91.70;;;;;;5025383;28;20210;-74
2023/03/17 05:55:13;;;;;;;3.10;2.60;;;2.40;91.60;;;;;;5017611;28;20180;-74
2023/03/17 05:57:39;;;;;;;2.97;2.75;;;2.40;91.40;;;;;;5031177;28;20182;-74
2023/03/17 06:00:06;;;;;;;2.60;2.40;;;2.50;91.20;;;;;;5018530;28;20200;-73
2023/03/17 06:02:32;;;;;;;2.83;2.60;;;2.50;91.20;;;;;;5020226;28;20226;-74
2023/03/17 06:04:57;;;;;;;2.80;2.60;;;2.50;91.30;;;;;;5024461;28;20220;-74
2023/03/17 06:07:23;;;;;;;2.63;2.43;;;2.50;91.40;;;;;;5025227;28;20192;-76
2023/03/17 06:09:48;;;;;;;3.08;2.40;;;2.70;91.30;;;;;;5026073;28;20184;-76
2023/03/17 06:12:14;;;;;;;2.50;2.30;;;2.70;91.30;;;;;;5020297;28;20200;-77
2023/03/17 06:14:40;;;;;;;2.63;2.43;;;2.80;91.20;;;;;;5020021;28;20216;-76
2023/03/17 06:17:06;;;;;;;2.50;2.30;;;2.90;91.00;;;;;;5023596;28;20558;-75
2023/03/17 06:19:31;;;;;;;3.83;2.70;;;3.00;90.50;;;;;;5026013;28;20253;-75
2023/03/17 06:21:57;;;;;;;2.25;2.15;;;3.00;90.80;;;;;;5020773;28;20243;-75
2023/03/17 06:24:23;;;;;;;4.45;2.30;;;3.00;90.80;;;;;;5022809;28;20260;-74
2023/03/17 06:26:48;;;;;;;2.60;2.23;;;3.10;90.60;;;;;;5028031;28;20188;-75
2023/03/17 06:29:15;;;;;;;4.47;2.40;;;3.00;90.20;;;;;;5025079;28;20748;-78
2023/03/17 06:31:41;;;;;;;3.60;2.40;;;3.00;90.20;;;;;;5031502;28;20287;-74
2023/03/17 06:34:07;;;;;;;2.35;2.15;;;3.00;90.20;;;;;;5023067;28;20239;-75
2023/03/17 06:36:32;;;;;;;3.30;2.50;;;3.10;90.10;;;;;;5024308;28;20185;-74
2023/03/17 06:38:59;;;;;;;2.92;2.65;;;3.10;90.40;;;;;;5020467;28;20276;-74
2023/03/17 06:41:25;;;;;;;2.63;2.23;;;3.10;90.60;;;;;;5025005;28;20200;-75
2023/03/17 06:43:51;;;;;;;2.60;2.40;;;3.10;90.20;;;;;;5023012;28;20188;-75
2023/03/17 06:46:17;;;;;;;5.72;2.80;;;3.20;90.00;;;;;;5022495;28;20707;-74
2023/03/17 06:48:43;;;;;;;2.73;2.50;;;3.30;90.10;;;;;;5019863;28;20220;-75
2023/03/17 06:51:09;;;;;;;2.75;2.38;;;3.40;90.30;;;;;;5026093;28;20212;-76
2023/03/17 06:53:35;;;;;;;2.60;2.38;;;3.50;90.10;;;;;;5024629;28;20208;-75
2023/03/17 06:56:01;;;;;;;3.50;2.25;;;3.60;89.90;;;;;;5022310;28;20185;-75
2023/03/17 06:58:27;;;;;;;2.60;2.40;;;3.70;89.80;;;;;;5030802;28;20183;-75
2023/03/17 07:00:53;;;;;;;5.10;2.67;;;3.80;89.10;;;;;;5026213;28;20277;-74
2023/03/17 07:03:21;;;;;;;2.40;2.25;;;3.90;88.50;;;;;;5028378;28;20200;-75
2023/03/17 07:05:47;;;;;;;2.67;2.30;;;4.10;87.40;;;;;;5025542;28;20208;-74
2023/03/17 07:08:13;;;;;;;3.20;2.78;;;4.20;86.90;;;;;;5024334;28;20191;-73
2023/03/17 07:10:42;;;;;;;7.10;3.30;;;4.30;86.70;;;;;;5032536;28;20200;-74
2023/03/17 07:13:09;;;;;;;3.63;3.13;;;4.30;87.10;;;;;;5031062;28;20721;-74
2023/03/17 07:15:36;;;;;;;4.68;2.75;;;4.30;86.80;;;;;;5028803;28;20184;-74
2023/03/17 07:18:02;;;;;;;4.80;2.85;;;4.40;87.20;;;;;;5027281;28;20173;-74
2023/03/17 07:20:28;;;;;;;4.43;2.90;;;4.50;87.30;;;;;;5042766;28;20220;-75
2023/03/17 07:22:54;;;;;;;2.40;2.15;;;4.60;90.00;;;;;;5037850;28;20181;-75
2023/03/17 07:25:19;;;;;;;13.07;3.92;;;4.60;88.40;;;;;;5033318;28;20176;-77
2023/03/17 07:27:45;;;;;;;2.95;2.63;;;4.70;85.10;;;;;;5027972;28;20185;-77
2023/03/17 07:30:12;;;;;;;3.42;2.40;;;4.80;88.10;;;;;;5043850;28;20543;-76
2023/03/17 07:32:38;;;;;;;2.60;2.40;;;4.90;87.20;;;;;;5030527;28;20180;-77
2023/03/17 07:35:04;;;;;;;3.13;2.33;;;4.90;84.30;;;;;;5028582;28;20688;-75
2023/03/17 07:37:30;;;;;;;2.78;2.58;;;5.00;85.00;;;;;;5023568;28;20181;-75
2023/03/17 07:39:56;;;;;;;3.70;2.40;;;5.10;85.30;;;;;;5025509;28;20676;-75
2023/03/17 07:42:21;;;;;;;3.20;2.92;;;5.20;85.60;;;;;;5038889;28;20180;-74
2023/03/17 07:44:47;;;;;;;2.67;2.47;;;5.30;84.80;;;;;;5029548;28;20199;-74
2023/03/17 07:47:13;;;;;;;4.45;3.30;;;5.30;83.00;;;;;;5028205;28;20185;-75
2023/03/17 07:49:40;;;;;;;3.35;3.05;;;5.30;82.80;;;;;;5028220;28;20263;-75
2023/03/17 07:52:07;;;;;;;5.00;2.95;;;5.40;82.20;;;;;;5027549;28;20196;-75
2023/03/17 07:54:33;;;;;;;3.13;2.83;;;5.30;82.10;;;;;;5031175;28;20679;-75
2023/03/17 07:56:58;;;;;;;2.55;2.28;;;5.40;82.60;;;;;;5027183;28;20264;-75
2023/03/17 07:59:24;;;;;;;2.63;2.42;;;5.40;81.10;;;;;;5040721;28;20606;-75
2023/03/17 08:01:50;;;;;;;3.05;2.40;;;5.40;80.60;;;;;;5033591;28;20222;-75
2023/03/17 08:04:16;;;;;;;2.97;2.20;;;5.40;80.60;;;;;;5031748;28;20185;-75
2023/03/17 08:06:41;;;;;;;4.53;2.60;;;5.40;80.30;;;;;;5031433;28;20535;-75
2023/03/17 08:09:09;;;;;;;3.88;2.47;;;5.50;80.40;;;;;;5027460;28;20534;-75
2023/03/17 08:11:36;;;;;;;2.50;2.30;;;5.50;80.30;;;;;;5036169;28;20789;-75
2023/03/17 08:14:02;;;;;;;2.78;2.50;;;5.60;80.60;;;;;;5030308;28;20258;-76
2023/03/17 08:16:29;;;;;;;2.40;2.20;;;5.60;80.20;;;;;;5033393;28;20678;-75
2023/03/17 08:18:57;;;;;;;4.65;2.15;;;5.80;80.00;;;;;;5038203;28;20318;-74
2023/03/17 08:21:24;;;;;;;3.67;2.22;;;5.90;80.10;;;;;;5032568;28;20200;-74
2023/03/17 08:23:49;;;;;;;4.43;2.60;;;6.00;79.10;;;;;;5028026;28;20181;-76
2023/03/17 08:26:17;;;;;;;3.45;2.40;;;6.10;78.90;;;;;;5032526;28;20191;-76
2023/03/17 08:28:43;;;;;;;3.67;2.63;;;6.20;77.90;;;;;;5030734;28;20331;-77
2023/03/17 08:31:17;;;;;;;2.35;2.15;;;6.30;78.00;;;;;;5031806;28;20192;-76
2023/03/17 08:33:46;;;;;;;3.30;2.30;;;6.40;76.90;;;;;;5031060;28;20876;-76
2023/03/17 08:36:12;;;;;;;2.50;2.30;;;6.50;77.60;;;;;;5030594;28;20268;-76
2023/03/17 08:38:40;;;;;;;2.45;2.25;;;6.60;76.50;;;;;;5027864;28;20216;-75
2023/03/17 08:41:08;;;;;;;2.45;2.20;;;6.70;76.40;;;;;;5030460;28;20204;-76
2023/03/17 08:43:36;;;;;;;2.60;2.30;;;6.90;75.70;;;;;;5030546;28;20647;-76
2023/03/17 08:46:24;;;;;;;2.42;2.08;;;7.10;74.40;;;;;;5036279;28;20215;-76
2023/03/17 08:48:53;;;;;;;2.53;2.33;;;7.40;74.70;;;;;;5022987;28;20627;-76
2023/03/17 08:51:19;;;;;;;3.00;2.42;;;7.60;74.40;;;;;;5027674;28;20193;-76
2023/03/17 08:53:46;;;;;;;2.40;2.15;;;7.80;72.40;;;;;;5035161;28;20676;-75
2023/03/17 08:56:13;;;;;;;3.10;2.40;;;8.20;72.00;;;;;;5031164;28;20260;-75
2023/03/17 08:58:39;;;;;;;2.47;2.08;;;9.00;71.70;;;;;;5027698;28;20731;-75
2023/03/17 09:01:05;;;;;;;3.10;2.30;;;11.10;66.50;;;;;;5031326;28;20278;-75
2023/03/17 09:03:32;;;;;;;1.92;1.83;;;13.40;60.10;;;;;;5029111;28;20239;-74
2023/03/17 09:05:58;;;;;;;4.55;1.90;;;15.20;55.70;;;;;;5033674;28;20188;-76
2023/03/17 09:08:25;;;;;;;3.25;2.00;;;15.70;52.90;;;;;;5025163;28;20182;-76
2023/03/17 09:10:51;;;;;;;1.90;1.80;;;15.50;51.70;;;;;;5028940;28;20197;-77
2023/03/17 09:13:18;;;;;;;3.70;1.92;;;14.80;52.70;;;;;;5021519;28;20711;-75
2023/03/17 09:15:44;;;;;;;2.55;2.35;;;14.20;53.30;;;;;;5024576;28;20221;-76
2023/03/17 09:18:11;;;;;;;2.05;1.88;;;13.10;54.60;;;;;;5030973;28;20366;-76
2023/03/17 09:20:36;;;;;;;2.47;2.08;;;12.50;56.90;;;;;;5027663;28;20204;-76
2023/03/17 09:23:08;;;;;;;2.13;2.00;;;12.40;57.20;;;;;;5032356;28;20705;-77
2023/03/17 09:25:35;;;;;;;2.67;2.20;;;13.60;57.20;;;;;;5044417;28;20635;-76
2023/03/17 09:28:01;;;;;;;2.30;2.08;;;15.50;53.50;;;;;;5034659;28;20220;-76
2023/03/17 09:30:27;;;;;;;2.35;2.15;;;17.00;50.80;;;;;;5027725;28;20662;-76
2023/03/17 09:32:53;;;;;;;2.20;1.90;;;18.70;47.90;;;;;;5025760;28;20207;-76
2023/03/17 09:35:19;;;;;;;2.83;2.10;;;20.20;46.70;;;;;;5031104;28;20176;-76
2023/03/17 09:37:46;;;;;;;2.75;2.55;;;21.10;44.30;;;;;;5029454;28;20165;-76
2023/03/17 09:40:16;;;;;;;2.38;2.17;;;20.30;44.10;;;;;;5024175;28;20209;-75
2023/03/17 09:43:11;;;;;;;2.45;2.25;;;20.70;44.50;;;;;;5028427;28;20175;-76
2023/03/17 09:45:40;;;;;;;2.60;1.90;;;21.10;44.20;;;;;;5029716;28;20742;-76
2023/03/17 09:48:25;;;;;;;4.38;2.15;;;22.00;43.00;;;;;;5037416;28;20203;-77
2023/03/17 09:51:17;;;;;;;2.40;2.08;;;22.90;41.90;;;;;;5028612;28;20189;-77
2023/03/17 09:53:49;;;;;;;2.55;2.00;;;23.90;40.10;;;;;;5026841;28;20216;-76
2023/03/17 09:56:17;;;;;;;2.40;2.20;;;24.40;39.50;;;;;;5022384;28;20190;-76
2023/03/17 09:58:53;;;;;;;2.05;1.95;;;24.70;39.90;;;;;;5025959;28;20216;-76
2023/03/17 10:01:19;;;;;;;2.55;2.35;;;24.90;39.30;;;;;;5012901;28;20208;-76
2023/03/17 10:03:46;;;;;;;2.65;1.98;;;25.10;38.60;;;;;;5013636;28;20212;-77
2023/03/17 10:06:33;;;;;;;2.40;2.20;;;24.70;38.40;;;;;;5017056;28;20195;-77
2023/03/17 10:09:15;;;;;;;2.65;2.45;;;24.20;39.40;;;;;;5015127;28;20201;-76
2023/03/17 10:11:44;;;;;;;2.38;2.15;;;24.30;39.50;;;;;;5013429;28;20676;-76
2023/03/17 10:14:26;;;;;;;2.03;1.83;;;24.80;39.20;;;;;;5014587;28;20849;-76
2023/03/17 10:17:18;;;;;;;2.50;2.30;;;25.80;38.30;;;;;;5014188;28;20547;-76
2023/03/17 10:20:03;;;;;;;2.22;2.03;;;26.50;37.40;;;;;;5009308;28;20638;-75
2023/03/17 10:22:48;;;;;;;1.77;1.67;;;26.60;37.20;;;;;;5011662;28;20177;-74
2023/03/17 10:25:15;;;;;;;2.10;1.90;;;26.70;36.20;;;;;;5011128;28;20246;-74
2023/03/17 10:27:45;;;;;;;2.63;1.98;;;26.90;36.10;;;;;;5010580;28;20189;-74
2023/03/17 10:30:18;;;;;;;2.00;1.90;;;26.60;36.40;;;;;;5015673;28;20249;-75
2023/03/17 10:32:45;;;;;;;1.80;1.70;;;25.90;36.70;;;;;;5017722;28;20595;-75
2023/03/17 10:35:12;;;;;;;1.95;1.85;;;24.30;37.70;;;;;;5022123;28;20296;-76
2023/03/17 10:37:38;;;;;;;2.30;1.92;;;23.60;38.10;;;;;;5012078;28;20189;-76
2023/03/17 10:40:09;;;;;;;2.55;2.20;;;23.70;38.30;;;;;;5019748;28;20200;-74
2023/03/17 10:42:48;;;;;;;1.67;1.60;;;23.90;37.50;;;;;;5012248;28;20235;-72
2023/03/17 10:45:15;;;;;;;2.15;1.70;;;24.30;37.60;;;;;;5019272;28;20516;-75
2023/03/17 10:47:47;;;;;;;1.80;1.70;;;25.30;36.80;;;;;;5026966;28;20241;-75
2023/03/17 10:50:31;;;;;;;1.83;1.60;;;26.30;36.20;;;;;;5019407;28;20303;-75
2023/03/17 10:53:06;;;;;;;1.98;1.45;;;26.90;35.10;;;;;;5020464;28;20540;-75
2023/03/17 10:55:43;;;;;;;1.80;1.70;;;27.80;34.90;;;;;;5030820;28;20182;-75
2023/03/17 10:58:08;;;;;;;2.10;2.00;;;27.50;34.90;;;;;;5021959;28;20179;-76
2023/03/17 11:00:37;;;;;;;2.10;2.00;;;27.70;34.10;;;;;;5020861;28;20200;-75
2023/03/17 11:03:19;;;;;;;3.95;2.75;;;28.00;34.60;;;;;;5025538;28;20612;-76
2023/03/17 11:06:02;;;;;;;3.83;3.53;;;29.00;34.20;;;;;;5020204;28;20208;-75
2023/03/17 11:08:52;;;;;;;2.65;2.22;;;29.60;34.20;;;;;;5016635;28;20599;-74
2023/03/17 11:11:26;;;;;;;2.40;1.95;;;28.70;33.80;;;;;;5023529;28;20241;-74
2023/03/17 11:14:15;;;;;;;2.35;2.17;;;28.60;34.70;;;;;;5028806;28;20213;-74
2023/03/17 11:16:53;;;;;;;2.50;2.33;;;28.90;34.40;;;;;;5026866;28;20650;-73
2023/03/17 11:19:21;;;;;;;2.38;2.17;;;29.10;34.50;;;;;;5027163;28;20196;-73
2023/03/17 11:22:12;;;;;;;2.53;2.13;;;29.90;34.00;;;;;;5028071;28;20288;-74
2023/03/17 11:24:58;;;;;;;1.60;1.50;;;29.30;32.90;;;;;;5021606;28;20196;-75
2023/03/17 11:27:33;;;;;;;1.90;1.80;;;30.50;32.60;;;;;;5032033;28;20220;-75
2023/03/17 11:30:15;;;;;;;2.42;1.75;;;30.50;33.00;;;;;;5030818;28;20261;-74
2023/03/17 11:32:59;;;;;;;1.77;1.67;;;31.20;32.50;;;;;;5031735;28;20661;-72
2023/03/17 11:35:42;;;;;;;2.22;1.98;;;31.80;32.00;;;;;;5031506;28;20195;-74
2023/03/17 11:38:10;;;;;;;2.03;1.88;;;32.20;31.30;;;;;;5028111;28;20642;-75
2023/03/17 11:41:07;;;;;;;3.70;1.98;;;32.40;31.50;;;;;;5025060;28;20569;-75
2023/03/17 11:43:45;;;;;;;2.60;2.17;;;32.00;32.50;;;;;;5027169;28;20206;-75
2023/03/17 11:46:41;;;;;;;2.42;2.00;;;33.10;32.10;;;;;;5018503;28;20245;-75
2023/03/17 11:49:17;;;;;;;2.00;1.90;;;34.20;30.90;;;;;;5022395;28;20192;-75
2023/03/17 11:51:49;;;;;;;1.90;1.80;;;33.40;29.60;;;;;;5013936;28;20290;-77
2023/03/17 11:54:37;;;;;;;2.15;1.80;;;33.20;30.00;;;;;;5011159;28;20203;-75
2023/03/17 11:57:11;;;;;;;2.45;2.22;;;34.00;29.40;;;;;;5014881;28;20188;-75
2023/03/17 12:00:04;;;;;;;2.10;2.00;;;35.10;29.10;;;;;;5013504;28;20186;-74
2023/03/17 12:02:39;;;;;;;1.65;1.55;;;35.70;28.70;;;;;;5013719;28;20195;-75
2023/03/17 12:05:15;;;;;;;1.63;1.55;;;35.20;28.40;;;;;;5014145;28;20176;-75
2023/03/17 12:07:44;;;;;;;1.88;1.77;;;34.50;28.70;;;;;;5013504;28;20615;-75
2023/03/17 12:10:16;;;;;;;1.55;1.50;;;34.70;29.10;;;;;;5012749;28;20675;-75
2023/03/17 12:12:56;;;;;;;2.03;1.58;;;35.80;28.60;;;;;;5014221;28;20267;-76
2023/03/17 12:15:30;;;;;;;1.98;1.80;;;36.00;28.10;;;;;;5016790;28;20203;-76
2023/03/17 12:18:04;;;;;;;2.10;1.70;;;35.70;28.40;;;;;;5014890;28;20321;-74
2023/03/17 12:20:34;;;;;;;1.50;1.40;;;34.70;29.00;;;;;;5013418;28;20625;-74
2023/03/17 12:23:16;;;;;;;1.95;1.85;;;34.60;28.90;;;;;;5014031;28;20222;-74
2023/03/17 12:26:23;;;;;;;1.60;1.50;;;33.30;29.00;;;;;;5012780;28;20183;-74
2023/03/17 12:29:13;;;;;;;1.88;1.77;;;32.80;29.20;;;;;;4998997;28;20660;-73
2023/03/17 12:31:44;;;;;;;2.45;2.00;;;32.00;30.00;;;;;;5018834;28;20207;-74
2023/03/17 12:34:16;;;;;;;1.75;1.65;;;32.30;29.80;;;;;;5015668;28;20203;-76
2023/03/17 12:36:42;;;;;;;2.30;2.05;;;32.40;29.30;;;;;;5016040;28;20234;-74
2023/03/17 12:39:13;;;;;;;2.50;1.73;;;32.10;29.80;;;;;;5020220;28;20192;-74
2023/03/17 12:42:07;;;;;;;1.80;1.70;;;32.20;29.70;;;;;;5015778;28;20706;-74
2023/03/17 12:44:39;;;;;;;2.38;1.83;;;32.50;29.70;;;;;;5015360;28;20221;-73
2023/03/17 12:47:25;;;;;;;1.70;1.60;;;33.50;29.60;;;;;;5014782;28;20192;-74
2023/03/17 12:50:08;;;;;;;2.15;2.05;;;33.50;29.40;;;;;;5014324;28;20188;-75
2023/03/17 12:52:49;;;;;;;2.40;2.30;;;34.00;29.50;;;;;;5013858;28;20187;-75
2023/03/17 12:55:17;;;;;;;1.88;1.70;;;34.80;29.00;;;;;;5019158;28;20294;-75
2023/03/17 12:57:56;;;;;;;1.88;1.77;;;35.40;28.50;;;;;;5016261;28;20656;-75
2023/03/17 13:00:29;;;;;;;1.67;1.60;;;35.60;28.50;;;;;;5013645;28;20670;-74
2023/03/17 13:03:17;;;;;;;1.48;1.48;;;35.40;28.40;;;;;;5017224;28;20291;-75